Time;durP1;ratioP1;P1;durP2;ratioP2;P2;SDS_P1;SDS_P2;PMS_P1;PMS_P2;Temp;Humidity;BMP_temperature;BMP_pressure;BME280_temperature;BME280_humidity;BME280_pressure;Samples;Min_cycle;Max_cycle;Signal;HPM_P1;HPM_P2
2022/09/18 00:00:42;;;;;;;4.27;1.03;;;;;;;11.46;100.00;99990.59;5075392;28;20454;-68
2022/09/18 00:03:10;;;;;;;3.57;0.90;;;;;;;11.46;100.00;99993.31;5075489;28;20519;-68
2022/09/18 00:05:36;;;;;;;4.63;1.37;;;;;;;11.49;100.00;99993.47;5075392;28;20810;-69
2022/09/18 00:08:06;;;;;;;3.20;0.90;;;;;;;11.58;100.00;99996.16;5075462;28;20441;-69
2022/09/18 00:10:33;;;;;;;3.50;0.80;;;;;;;11.53;100.00;99989.00;5075003;28;20962;-68
2022/09/18 00:12:59;;;;;;;3.30;1.00;;;;;;;11.33;100.00;99993.19;5075358;28;20821;-69
2022/09/18 00:15:26;;;;;;;3.83;0.90;;;;;;;11.24;100.00;99997.78;5075040;28;21017;-69
2022/09/18 00:17:52;;;;;;;4.27;0.80;;;;;;;11.36;100.00;100002.56;5075259;28;20445;-69
2022/09/18 00:20:19;;;;;;;3.60;1.00;;;;;;;11.30;100.00;99991.09;5075055;28;20473;-69
2022/09/18 00:22:46;;;;;;;3.77;0.93;;;;;;;11.24;100.00;99997.78;5075121;28;20481;-68
2022/09/18 00:25:13;;;;;;;3.93;0.73;;;;;;;11.23;100.00;99996.19;5074894;28;20441;-69
2022/09/18 00:27:40;;;;;;;3.30;0.80;;;;;;;11.20;100.00;100005.00;5075135;28;20453;-69
2022/09/18 00:30:07;;;;;;;5.13;0.80;;;;;;;11.21;100.00;100008.50;5074962;28;20457;-69
2022/09/18 00:32:34;;;;;;;3.30;0.90;;;;;;;11.17;100.00;100011.03;5074971;28;20452;-69
2022/09/18 00:35:00;;;;;;;3.00;0.60;;;;;;;11.18;100.00;100006.41;5075073;28;20445;-69
2022/09/18 00:37:27;;;;;;;3.17;0.63;;;;;;;11.13;100.00;100012.78;5074910;28;20448;-69
2022/09/18 00:39:53;;;;;;;3.40;0.90;;;;;;;11.10;100.00;100008.78;5074774;28;20497;-69
2022/09/18 00:42:21;;;;;;;3.77;0.97;;;;;;;11.13;100.00;100018.22;5074801;28;20473;-68
2022/09/18 00:44:48;;;;;;;3.17;0.70;;;;;;;11.12;100.00;100019.34;5074771;28;20464;-68
2022/09/18 00:47:20;;;;;;;3.00;0.70;;;;;;;11.10;100.00;100014.22;5074703;28;20441;-68
2022/09/18 00:49:51;;;;;;;4.33;1.20;;;;;;;11.08;100.00;100015.66;5074243;28;20808;-68
2022/09/18 00:52:23;;;;;;;2.90;0.60;;;;;;;11.09;100.00;100017.25;5074434;28;20483;-69
2022/09/18 00:54:55;;;;;;;5.83;0.90;;;;;;;11.03;100.00;100015.81;5074197;28;20438;-68
2022/09/18 00:57:27;;;;;;;3.30;0.80;;;;;;;11.13;100.00;100020.91;5074553;28;20426;-68
2022/09/18 00:59:54;;;;;;;3.43;1.07;;;;;;;11.13;100.00;100029.06;5074272;28;21001;-69
2022/09/18 01:02:21;;;;;;;3.63;1.10;;;;;;;11.06;100.00;100018.66;5073912;28;20484;-68
2022/09/18 01:04:49;;;;;;;3.43;0.77;;;;;;;11.07;100.00;100025.72;5074229;28;20452;-69
2022/09/18 01:07:28;;;;;;;4.50;0.70;;;;;;;11.14;100.00;100024.44;5074252;28;20441;-68
2022/09/18 01:10:02;;;;;;;3.10;0.67;;;;;;;11.02;100.00;100023.16;5074188;28;20833;-69
2022/09/18 01:12:38;;;;;;;4.70;0.83;;;;;;;11.05;100.00;100029.84;5074513;28;20460;-69
2022/09/18 01:15:12;;;;;;;3.43;0.90;;;;;;;11.04;100.00;100033.66;5074214;28;20425;-68
2022/09/18 01:17:45;;;;;;;7.03;0.70;;;;;;;11.00;100.00;100035.41;5073510;28;20861;-69
2022/09/18 01:20:33;;;;;;;2.93;0.60;;;;;;;10.98;100.00;100027.63;5073858;28;20473;-69
2022/09/18 01:23:13;;;;;;;5.33;0.80;;;;;;;10.97;100.00;100020.56;5073958;28;20466;-69
2022/09/18 01:25:55;;;;;;;3.30;0.60;;;;;;;10.94;100.00;100026.66;5073487;28;20437;-68
2022/09/18 01:28:27;;;;;;;2.90;0.63;;;;;;;10.92;100.00;100030.78;5073670;28;20512;-68
2022/09/18 01:30:59;;;;;;;3.30;0.60;;;;;;;10.81;100.00;100020.25;5053865;28;20466;-69
2022/09/18 01:33:31;;;;;;;2.90;0.53;;;;;;;10.78;100.00;100026.28;5053807;28;20419;-70
2022/09/18 01:36:02;;;;;;;3.10;0.50;;;;;;;10.79;100.00;100027.88;5053536;28;20437;-68
2022/09/18 01:38:32;;;;;;;2.90;0.57;;;;;;;10.83;100.00;100028.06;5053882;28;20484;-68
2022/09/18 01:41:05;;;;;;;3.00;0.53;;;;;;;10.84;100.00;100030.44;5071317;28;20468;-69
2022/09/18 01:43:35;;;;;;;3.50;0.67;;;;;;;10.81;100.00;100028.38;5073688;28;20875;-70
2022/09/18 01:46:07;;;;;;;2.80;0.50;;;;;;;10.78;100.00;100034.44;5072877;28;20935;-69
2022/09/18 01:48:39;;;;;;;3.53;0.60;;;;;;;10.81;100.00;100038.44;5073694;28;20430;-68
2022/09/18 01:51:13;;;;;;;3.63;0.80;;;;;;;10.82;100.00;100037.31;5073549;28;20464;-68
2022/09/18 01:53:45;;;;;;;2.90;0.60;;;;;;;10.76;100.00;100042.09;5073546;28;20421;-67
2022/09/18 01:56:17;;;;;;;9.73;0.93;;;;;;;10.75;100.00;100048.59;5073553;28;20425;-68
2022/09/18 01:58:48;;;;;;;3.57;0.60;;;;;;;10.77;100.00;100040.97;5073591;28;20483;-68
2022/09/18 02:01:19;;;;;;;5.00;1.00;;;;;;;10.88;100.00;100046.06;5073444;28;20461;-68
2022/09/18 02:03:51;;;;;;;5.17;0.77;;;;;;;10.88;100.00;100046.88;5073369;28;20465;-69
2022/09/18 02:06:21;;;;;;;3.17;0.57;;;;;;;10.80;100.00;100044.94;5073356;28;20465;-68
2022/09/18 02:08:51;;;;;;;7.90;0.63;;;;;;;10.72;100.00;100048.44;5073133;28;20434;-68
2022/09/18 02:11:19;;;;;;;5.60;0.73;;;;;;;10.78;100.00;100047.16;5073258;28;20558;-68
2022/09/18 02:13:54;;;;;;;3.73;1.00;;;;;;;10.77;100.00;100049.09;5072350;28;20942;-68
2022/09/18 02:16:27;;;;;;;3.20;0.60;;;;;;;10.78;100.00;100050.69;5073107;28;20437;-68
2022/09/18 02:18:57;;;;;;;3.10;0.90;;;;;;;10.78;100.00;100053.38;5073117;28;20479;-68
2022/09/18 02:21:28;;;;;;;3.33;0.93;;;;;;;10.84;100.00;100049.41;5073320;28;20422;-68
2022/09/18 02:23:59;;;;;;;3.60;0.90;;;;;;;10.77;100.00;100053.72;5073171;28;20842;-68
2022/09/18 02:26:26;;;;;;;3.63;1.10;;;;;;;10.74;100.00;100055.13;5072585;28;20850;-68
2022/09/18 02:28:56;;;;;;;6.00;0.73;;;;;;;10.77;100.00;100051.00;5073135;28;20445;-68
2022/09/18 02:31:22;;;;;;;3.23;1.00;;;;;;;10.83;100.00;100055.94;5073165;28;20445;-69
2022/09/18 02:33:49;;;;;;;10.70;0.80;;;;;;;10.81;100.00;100052.75;5072844;28;20495;-69
2022/09/18 02:36:31;;;;;;;3.20;0.90;;;;;;;10.77;100.00;100059.13;5073144;28;20444;-69
2022/09/18 02:39:09;;;;;;;3.30;0.90;;;;;;;10.65;100.00;100051.59;5072597;28;20449;-69
2022/09/18 02:41:43;;;;;;;5.97;1.00;;;;;;;10.64;100.00;100058.13;5072704;28;20819;-70
2022/09/18 02:44:17;;;;;;;6.00;1.07;;;;;;;10.75;100.00;100056.72;5073131;28;20819;-67
2022/09/18 02:46:57;;;;;;;4.10;1.30;;;;;;;10.78;100.00;100056.09;5072674;28;20430;-69
2022/09/18 02:49:33;;;;;;;10.63;1.30;;;;;;;10.79;100.00;100060.38;5072903;28;20461;-69
2022/09/18 02:52:06;;;;;;;5.53;1.03;;;;;;;10.78;100.00;100066.13;5072941;28;20425;-69
2022/09/18 02:54:40;;;;;;;12.37;1.50;;;;;;;10.80;100.00;100064.72;5072924;28;20510;-69
2022/09/18 02:57:12;;;;;;;6.67;1.23;;;;;;;10.80;100.00;100062.00;5072554;28;20430;-70
2022/09/18 02:59:45;;;;;;;7.60;1.43;;;;;;;10.75;100.00;100069.47;5072811;28;20453;-70
2022/09/18 03:02:12;;;;;;;6.77;1.30;;;;;;;10.82;100.00;100069.81;5072835;28;20422;-70
2022/09/18 03:04:38;;;;;;;3.67;1.10;;;;;;;10.78;100.00;100074.25;5072705;28;20477;-70
2022/09/18 03:07:04;;;;;;;3.77;1.13;;;;;;;10.86;100.00;100074.28;5072783;28;20441;-70
2022/09/18 03:09:33;;;;;;;4.47;1.30;;;;;;;10.84;100.00;100075.69;5072728;28;20873;-69
2022/09/18 03:12:00;;;;;;;3.57;0.97;;;;;;;10.81;100.00;100079.84;5072435;28;21033;-69
2022/09/18 03:14:27;;;;;;;12.43;1.60;;;;;;;10.85;100.00;100072.69;5072679;28;20476;-70
2022/09/18 03:16:55;;;;;;;5.23;1.40;;;;;;;10.84;100.00;100076.50;5072575;28;20942;-70
2022/09/18 03:19:21;;;;;;;5.53;1.23;;;;;;;10.80;100.00;100086.41;5072419;28;20473;-70
2022/09/18 03:21:49;;;;;;;10.73;1.40;;;;;;;10.77;100.00;100076.19;5072607;28;20433;-72
2022/09/18 03:24:16;;;;;;;10.13;1.20;;;;;;;10.77;100.00;100078.88;5073370;28;20481;-71
2022/09/18 03:26:43;;;;;;;6.33;1.40;;;;;;;10.78;100.00;100077.78;5076191;28;20494;-71
2022/09/18 03:29:09;;;;;;;4.10;1.47;;;;;;;10.80;100.00;100089.09;5076118;28;20954;-70
2022/09/18 03:31:36;;;;;;;4.87;1.33;;;;;;;10.79;100.00;100083.97;5076296;28;20444;-72
2022/09/18 03:34:04;;;;;;;15.43;1.80;;;;;;;10.79;100.00;100087.47;5076110;28;20445;-73
2022/09/18 03:36:30;;;;;;;7.30;1.57;;;;;;;10.81;100.00;100093.41;5076177;28;20448;-72
2022/09/18 03:38:57;;;;;;;7.47;1.60;;;;;;;10.80;100.00;100093.69;5076075;28;20473;-72
2022/09/18 03:41:24;;;;;;;12.70;2.27;;;;;;;10.78;100.00;100094.03;5076471;28;20445;-74
2022/09/18 03:43:51;;;;;;;9.83;1.77;;;;;;;10.76;100.00;100090.84;5076019;28;20477;-73
2022/09/18 03:46:22;;;;;;;8.50;1.87;;;;;;;10.79;100.00;100089.41;5075951;28;20455;-73
2022/09/18 03:48:48;;;;;;;6.27;1.13;;;;;;;10.79;100.00;100101.03;5075623;28;20441;-73
2022/09/18 03:51:16;;;;;;;3.83;1.30;;;;;;;10.78;100.00;100102.16;5075793;28;20472;-74
2022/09/18 03:53:44;;;;;;;4.70;1.47;;;;;;;10.76;100.00;100100.88;5076040;28;20437;-72
2022/09/18 03:56:10;;;;;;;9.27;1.90;;;;;;;10.80;100.00;100109.94;5075755;28;20433;-72
2022/09/18 03:58:36;;;;;;;5.70;1.50;;;;;;;10.84;100.00;100103.59;5075628;28;20499;-73
2022/09/18 04:01:03;;;;;;;6.20;1.80;;;;;;;10.87;100.00;100115.72;5075719;28;20521;-73
2022/09/18 04:03:30;;;;;;;6.20;1.30;;;;;;;10.79;100.00;100106.44;5075670;28;20481;-73
2022/09/18 04:05:57;;;;;;;12.97;1.57;;;;;;;10.83;100.00;100112.03;5075612;28;20441;-73
2022/09/18 04:08:25;;;;;;;11.60;2.00;;;;;;;10.82;100.00;100111.25;5075088;28;20997;-73
2022/09/18 04:10:51;;;;;;;6.80;1.80;;;;;;;10.79;100.00;100108.38;5075506;28;20515;-73
2022/09/18 04:13:18;;;;;;;5.60;1.40;;;;;;;10.75;100.00;100121.72;5075554;28;20437;-72
2022/09/18 04:15:48;;;;;;;9.97;1.70;;;;;;;10.79;100.00;100117.28;5075154;28;20452;-73
2022/09/18 04:18:15;;;;;;;8.50;2.20;;;;;;;10.74;100.00;100130.19;5075691;28;20434;-73
2022/09/18 04:20:41;;;;;;;6.70;2.47;;;;;;;10.77;100.00;100122.22;5074737;28;20526;-73
2022/09/18 04:23:10;;;;;;;13.53;1.90;;;;;;;10.77;100.00;100124.94;5075327;28;20484;-73
2022/09/18 04:25:39;;;;;;;4.90;1.73;;;;;;;10.79;100.00;100133.53;5075350;28;20438;-73
2022/09/18 04:28:06;;;;;;;9.63;1.90;;;;;;;10.84;100.00;100114.44;5074977;28;21039;-73
2022/09/18 04:30:32;;;;;;;4.90;2.17;;;;;;;10.80;100.00;100132.44;5075223;28;20469;-73
2022/09/18 04:32:59;;;;;;;8.07;2.60;;;;;;;10.76;100.00;100130.69;5074827;28;20842;-73
2022/09/18 04:35:25;;;;;;;7.00;1.63;;;;;;;10.75;100.00;100129.06;5074276;28;20449;-73
2022/09/18 04:37:51;;;;;;;4.57;1.63;;;;;;;10.71;100.00;100138.91;5074621;28;20499;-73
2022/09/18 04:40:18;;;;;;;19.13;2.30;;;;;;;10.70;100.00;100134.63;5074918;28;20488;-73
2022/09/18 04:42:46;;;;;;;13.67;2.67;;;;;;;10.64;100.00;100135.88;5074927;28;20472;-73
2022/09/18 04:45:12;;;;;;;4.23;1.43;;;;;;;10.65;100.00;100137.47;5074843;28;20481;-73
2022/09/18 04:47:39;;;;;;;12.93;1.67;;;;;;;10.61;100.00;100137.28;5075100;28;20437;-73
2022/09/18 04:50:07;;;;;;;4.40;1.27;;;;;;;10.61;100.00;100146.22;5074850;28;20474;-71
2022/09/18 04:52:34;;;;;;;4.30;1.60;;;;;;;10.58;100.00;100137.91;5074756;28;20471;-71
2022/09/18 04:55:00;;;;;;;5.10;1.30;;;;;;;10.53;100.00;100140.75;5074287;28;20495;-71
2022/09/18 04:57:27;;;;;;;5.20;1.60;;;;;;;10.52;100.00;100139.16;5074401;28;20447;-71
2022/09/18 04:59:55;;;;;;;10.13;1.60;;;;;;;10.56;100.00;100135.53;5074510;28;20457;-71
2022/09/18 05:02:22;;;;;;;5.73;1.30;;;;;;;10.56;100.00;100143.66;5074884;28;20562;-71
2022/09/18 05:04:48;;;;;;;6.60;1.40;;;;;;;10.51;100.00;100140.28;5073888;28;20477;-71
2022/09/18 05:07:14;;;;;;;7.73;1.47;;;;;;;10.49;100.00;100143.31;5074492;28;20495;-71
2022/09/18 05:09:41;;;;;;;7.23;1.47;;;;;;;10.44;100.00;100146.13;5074373;28;20457;-70
2022/09/18 05:12:08;;;;;;;9.87;1.40;;;;;;;10.44;100.00;100148.03;5074352;28;20465;-71
2022/09/18 05:14:35;;;;;;;10.80;1.23;;;;;;;10.43;100.00;100147.25;5074439;28;20536;-75
2022/09/18 05:17:03;;;;;;;4.53;1.47;;;;;;;10.45;100.00;100150.47;5074394;28;20445;-73
2022/09/18 05:19:29;;;;;;;3.63;0.93;;;;;;;10.46;100.00;100153.97;5073716;28;20488;-73
2022/09/18 05:21:55;;;;;;;8.67;1.10;;;;;;;10.49;100.00;100151.44;5074298;28;20445;-73
2022/09/18 05:24:22;;;;;;;4.07;1.13;;;;;;;10.45;100.00;100160.50;5074033;28;20500;-74
2022/09/18 05:26:48;;;;;;;8.50;1.57;;;;;;;10.43;100.00;100162.69;5073692;28;20445;-74
2022/09/18 05:29:15;;;;;;;5.67;0.80;;;;;;;10.40;100.00;100171.44;5073508;28;20452;-73
2022/09/18 05:31:41;;;;;;;11.33;1.40;;;;;;;10.40;100.00;100172.22;5075359;28;20448;-73
2022/09/18 05:34:09;;;;;;;4.70;1.27;;;;;;;10.36;100.00;100173.97;5074051;28;20540;-73
2022/09/18 05:36:35;;;;;;;4.30;1.10;;;;;;;10.38;100.00;100179.88;5073956;28;20425;-75
2022/09/18 05:39:02;;;;;;;6.63;1.30;;;;;;;10.38;100.00;100179.88;5053974;28;20434;-73
2022/09/18 05:41:28;;;;;;;4.90;1.47;;;;;;;10.40;100.00;100177.63;5053834;28;20626;-75
2022/09/18 05:43:55;;;;;;;6.67;1.40;;;;;;;10.30;100.00;100186.81;5053779;28;20493;-74
2022/09/18 05:46:21;;;;;;;7.10;1.50;;;;;;;10.34;100.00;100195.94;5053494;28;20878;-73
2022/09/18 05:48:48;;;;;;;5.77;1.13;;;;;;;10.30;100.00;100191.44;5053488;28;20792;-73
2022/09/18 05:51:16;;;;;;;6.40;1.50;;;;;;;10.21;100.00;100185.94;5053636;28;20466;-73
2022/09/18 05:53:47;;;;;;;3.30;0.80;;;;;;;10.06;100.00;100191.72;5055560;28;20481;-73
2022/09/18 05:56:14;;;;;;;4.20;1.13;;;;;;;10.09;100.00;100193.81;5073331;28;20469;-73
2022/09/18 05:58:40;;;;;;;8.53;1.30;;;;;;;10.13;100.00;100189.38;5073248;28;20934;-72
2022/09/18 06:01:07;;;;;;;6.00;1.13;;;;;;;10.16;100.00;100191.47;5073488;28;20461;-73
2022/09/18 06:03:33;;;;;;;6.90;1.30;;;;;;;10.18;100.00;100189.28;5073427;28;20479;-72
2022/09/18 06:05:59;;;;;;;6.07;1.20;;;;;;;10.17;100.00;100187.66;5073552;28;20437;-71
2022/09/18 06:08:27;;;;;;;6.60;1.20;;;;;;;10.13;100.00;100192.09;5073443;28;20454;-72
2022/09/18 06:10:54;;;;;;;4.00;0.90;;;;;;;10.16;100.00;100186.06;5073115;28;21001;-72
2022/09/18 06:13:20;;;;;;;5.67;1.00;;;;;;;10.13;100.00;100188.56;5073524;28;20446;-72
2022/09/18 06:15:48;;;;;;;4.23;1.20;;;;;;;10.23;100.00;100188.34;5073417;28;20448;-72
2022/09/18 06:18:15;;;;;;;8.50;1.50;;;;;;;10.27;100.00;100195.56;5073515;28;20538;-71
2022/09/18 06:20:42;;;;;;;15.00;1.40;;;;;;;10.36;100.00;100206.47;5072909;28;20473;-71
2022/09/18 06:23:08;;;;;;;9.93;1.10;;;;;;;10.28;100.00;100201.78;5073307;28;20441;-72
2022/09/18 06:25:36;;;;;;;6.70;1.20;;;;;;;10.21;100.00;100202.19;5073205;28;20896;-69
2022/09/18 06:28:05;;;;;;;3.93;1.00;;;;;;;10.31;100.00;100207.41;5073312;28;20449;-69
2022/09/18 06:30:33;;;;;;;6.40;1.10;;;;;;;10.36;100.00;100201.06;5073119;28;20465;-73
2022/09/18 06:33:00;;;;;;;7.40;1.40;;;;;;;10.40;100.00;100206.63;5073158;28;20449;-70
2022/09/18 06:35:27;;;;;;;10.07;1.60;;;;;;;10.39;100.00;100211.25;5073077;28;20441;-68
2022/09/18 06:37:53;;;;;;;3.50;0.80;;;;;;;10.41;100.00;100208.25;5073108;28;20801;-67
2022/09/18 06:40:20;;;;;;;3.57;1.00;;;;;;;10.42;100.00;100204.41;5072991;28;20457;-67
2022/09/18 06:42:47;;;;;;;4.13;1.07;;;;;;;10.45;100.00;100203.81;5072955;28;20450;-67
2022/09/18 06:45:14;;;;;;;3.53;0.83;;;;;;;10.51;100.00;100210.69;5072797;28;20825;-67
2022/09/18 06:47:40;;;;;;;4.43;1.00;;;;;;;10.56;100.00;100211.34;5072687;28;20437;-67
2022/09/18 06:50:08;;;;;;;3.80;1.13;;;;;;;10.54;100.00;100216.28;5072815;28;20472;-67
2022/09/18 06:52:34;;;;;;;12.20;1.23;;;;;;;10.60;100.00;100215.03;5072912;28;20441;-68
2022/09/18 06:55:01;;;;;;;9.00;1.30;;;;;;;10.64;100.00;100212.53;5072543;28;20958;-67
2022/09/18 06:57:27;;;;;;;8.53;1.27;;;;;;;10.66;100.00;100217.63;5072645;28;20939;-68
2022/09/18 06:59:55;;;;;;;7.33;1.07;;;;;;;10.64;100.00;100212.53;5074801;28;20457;-68
2022/09/18 07:02:21;;;;;;;5.20;1.03;;;;;;;10.73;100.00;100221.50;5076828;28;20453;-68
2022/09/18 07:04:48;;;;;;;5.33;0.97;;;;;;;10.70;100.00;100219.38;5076679;28;20488;-69
2022/09/18 07:07:14;;;;;;;7.33;1.07;;;;;;;10.79;100.00;100217.53;5076835;28;20566;-68
2022/09/18 07:09:41;;;;;;;8.23;1.53;;;;;;;10.87;100.00;100221.38;5076185;28;20995;-66
2022/09/18 07:12:07;;;;;;;3.37;0.87;;;;;;;10.93;100.00;100222.84;5076321;28;20935;-69
2022/09/18 07:14:34;;;;;;;5.10;0.93;;;;;;;11.03;99.58;100228.00;5076588;28;20441;-74
2022/09/18 07:17:02;;;;;;;4.90;0.80;;;;;;;11.03;98.98;100225.28;5076316;28;20442;-71
2022/09/18 07:19:28;;;;;;;7.67;1.23;;;;;;;11.09;99.44;100239.50;5076233;28;20485;-71
2022/09/18 07:21:54;;;;;;;3.40;0.70;;;;;;;11.11;99.61;100229.13;5076075;28;20954;-71
2022/09/18 07:24:21;;;;;;;6.20;1.23;;;;;;;11.25;99.02;100226.34;5076156;28;20477;-70
2022/09/18 07:26:47;;;;;;;8.00;1.27;;;;;;;11.37;98.68;100238.16;5076256;28;20441;-69
2022/09/18 07:29:14;;;;;;;6.10;0.83;;;;;;;11.38;96.31;100228.13;5076149;28;20456;-70
2022/09/18 07:31:40;;;;;;;3.33;0.60;;;;;;;11.33;96.46;100230.97;5075840;28;20935;-71
2022/09/18 07:34:08;;;;;;;5.40;0.90;;;;;;;11.39;96.45;100232.44;5075635;28;20445;-70
2022/09/18 07:36:34;;;;;;;6.03;1.47;;;;;;;11.50;96.33;100225.59;5076134;28;20532;-71
2022/09/18 07:39:01;;;;;;;6.13;0.80;;;;;;;11.57;96.39;100227.84;5075716;28;20449;-71
2022/09/18 07:41:27;;;;;;;3.00;0.60;;;;;;;11.56;96.19;100234.41;5076031;28;20522;-70
2022/09/18 07:43:54;;;;;;;6.93;1.40;;;;;;;11.54;94.96;100236.59;5075877;28;20445;-70
2022/09/18 07:46:20;;;;;;;5.33;0.97;;;;;;;11.49;96.29;100232.13;5075911;28;20453;-71
2022/09/18 07:48:47;;;;;;;5.33;1.13;;;;;;;11.54;94.99;100233.91;5075940;28;20446;-71
2022/09/18 07:51:15;;;;;;;6.10;1.07;;;;;;;11.59;95.01;100226.41;5075642;28;20548;-70
2022/09/18 07:53:41;;;;;;;5.50;0.80;;;;;;;11.61;95.13;100229.63;5075699;28;20457;-72
2022/09/18 07:56:08;;;;;;;12.50;1.23;;;;;;;11.73;93.81;100241.75;5075878;28;20434;-70
2022/09/18 07:58:35;;;;;;;4.23;0.80;;;;;;;11.73;94.21;100231.72;5075285;28;20450;-71
2022/09/18 08:01:02;;;;;;;5.40;1.00;;;;;;;11.79;94.27;100235.88;5075650;28;20840;-71
2022/09/18 08:03:29;;;;;;;3.40;0.80;;;;;;;12.00;93.27;100225.22;5075725;28;20477;-70
2022/09/18 08:05:56;;;;;;;16.87;1.60;;;;;;;12.06;91.61;100232.06;5075604;28;20531;-68
2022/09/18 08:08:24;;;;;;;3.70;0.63;;;;;;;11.99;91.51;100223.59;5075562;28;20482;-70
2022/09/18 08:10:51;;;;;;;5.07;1.30;;;;;;;12.05;92.45;100226.97;5074994;28;20461;-72
2022/09/18 08:13:17;;;;;;;3.90;1.20;;;;;;;12.07;91.36;100233.66;5074903;28;20452;-71
2022/09/18 08:15:44;;;;;;;4.37;0.90;;;;;;;12.20;90.10;100233.81;5074570;28;20444;-71
2022/09/18 08:18:11;;;;;;;4.03;0.93;;;;;;;12.14;91.15;100235.91;5075071;28;20938;-69
2022/09/18 08:20:38;;;;;;;5.10;0.90;;;;;;;12.24;88.79;100227.44;5074752;28;20473;-70
2022/09/18 08:23:06;;;;;;;5.43;0.70;;;;;;;12.31;89.27;100229.69;5070497;28;20461;-70
2022/09/18 08:25:33;;;;;;;5.53;0.90;;;;;;;12.41;88.97;100242.13;5055124;28;20497;-72
2022/09/18 08:28:00;;;;;;;5.20;0.80;;;;;;;12.32;88.26;100231.28;5053976;28;20978;-73
2022/09/18 08:30:28;;;;;;;3.80;0.70;;;;;;;12.43;88.50;100231.72;5074711;28;20485;-73
2022/09/18 08:32:58;;;;;;;5.50;0.97;;;;;;;12.50;87.38;100226.63;5075117;28;20495;-70
2022/09/18 08:35:24;;;;;;;12.27;1.30;;;;;;;12.59;87.13;100220.03;5074932;28;20452;-70
2022/09/18 08:37:50;;;;;;;4.03;0.93;;;;;;;12.69;86.99;100215.38;5074941;28;20446;-71
2022/09/18 08:40:19;;;;;;;8.83;1.83;;;;;;;12.79;88.06;100220.44;5074930;28;20461;-70
2022/09/18 08:42:59;;;;;;;5.47;0.93;;;;;;;12.95;86.71;100228.88;5074932;28;20445;-70
2022/09/18 08:45:39;;;;;;;8.30;1.23;;;;;;;12.97;86.09;100235.59;5074693;28;20526;-71
2022/09/18 08:48:11;;;;;;;4.10;0.90;;;;;;;13.07;85.66;100221.63;5074851;28;20436;-70
2022/09/18 08:50:42;;;;;;;8.33;1.03;;;;;;;13.26;85.81;100221.25;5074679;28;20836;-70
2022/09/18 08:53:15;;;;;;;10.00;1.60;;;;;;;13.32;81.84;100225.38;5074518;28;20911;-71
2022/09/18 08:55:46;;;;;;;7.37;0.83;;;;;;;13.22;82.23;100225.75;5074621;28;20426;-68
2022/09/18 08:58:17;;;;;;;3.23;0.73;;;;;;;13.20;84.71;100211.66;5074780;28;20782;-70
2022/09/18 09:00:47;;;;;;;5.87;0.80;;;;;;;13.20;82.53;100222.53;5074583;28;20511;-70
2022/09/18 09:03:26;;;;;;;3.00;0.60;;;;;;;13.25;83.10;100216.16;5074294;28;20775;-69
2022/09/18 09:05:57;;;;;;;3.10;0.80;;;;;;;13.25;81.83;100227.81;5074567;28;20465;-70
2022/09/18 09:08:36;;;;;;;4.83;1.20;;;;;;;13.29;82.54;100215.16;5074282;28;20417;-71
2022/09/18 09:11:10;;;;;;;3.20;0.70;;;;;;;13.36;82.74;100220.06;5073753;28;20518;-71
2022/09/18 09:14:16;;;;;;;7.00;1.17;;;;;;;13.53;81.34;100216.47;5073441;28;20438;-71
2022/09/18 09:16:50;;;;;;;5.17;1.23;;;;;;;13.53;79.29;100216.47;5054052;28;20453;-70
2022/09/18 09:19:27;;;;;;;3.17;0.77;;;;;;;13.55;81.77;100222.38;5073240;28;20460;-71
2022/09/18 09:22:02;;;;;;;11.23;0.90;;;;;;;13.57;81.18;100220.13;5071376;28;20437;-71
2022/09/18 09:24:33;;;;;;;5.27;1.00;;;;;;;13.67;80.46;100216.22;5071606;28;20434;-69
2022/09/18 09:27:08;;;;;;;4.30;0.60;;;;;;;13.85;78.07;100213.03;5073074;28;20438;-69
2022/09/18 09:29:39;;;;;;;3.77;0.83;;;;;;;13.95;77.85;100221.97;5074855;28;20469;-71
2022/09/18 09:32:22;;;;;;;5.33;0.70;;;;;;;13.99;77.25;100220.13;5073834;28;20430;-69
2022/09/18 09:34:54;;;;;;;3.50;0.80;;;;;;;14.01;76.45;100212.44;5071283;28;20436;-70
2022/09/18 09:37:24;;;;;;;4.50;0.60;;;;;;;13.94;76.31;100212.16;5072777;28;20445;-70
2022/09/18 09:39:53;;;;;;;3.47;0.67;;;;;;;13.80;77.85;100215.94;5073031;28;20464;-69
2022/09/18 09:42:25;;;;;;;5.37;1.40;;;;;;;13.63;79.68;100216.91;5073781;28;20441;-69
2022/09/18 09:44:58;;;;;;;5.07;0.93;;;;;;;13.34;83.47;100214.97;5071242;28;20555;-69
2022/09/18 09:47:34;;;;;;;3.77;0.90;;;;;;;12.90;89.69;100224.41;5073568;28;20460;-69
2022/09/18 09:50:15;;;;;;;3.20;0.80;;;;;;;12.36;90.09;100216.72;5073109;28;20492;-71
2022/09/18 09:52:45;;;;;;;5.70;1.00;;;;;;;12.18;92.87;100215.16;5071041;28;21009;-69
2022/09/18 09:55:20;;;;;;;7.30;0.97;;;;;;;12.16;94.67;100216.56;5072930;28;20449;-69
2022/09/18 09:57:56;;;;;;;4.90;0.90;;;;;;;12.27;96.57;100215.94;5073593;28;20475;-73
2022/09/18 10:00:23;;;;;;;3.20;0.70;;;;;;;12.43;96.50;100210.78;5073476;28;20461;-70
2022/09/18 10:03:05;;;;;;;4.00;0.83;;;;;;;12.59;96.42;100213.81;5072997;28;20481;-70
2022/09/18 10:05:38;;;;;;;4.50;0.70;;;;;;;12.84;96.69;100210.22;5073536;28;20466;-71
2022/09/18 10:08:09;;;;;;;6.87;1.00;;;;;;;13.09;92.77;100199.56;5053465;28;20455;-71
2022/09/18 10:10:40;;;;;;;5.70;1.33;;;;;;;13.31;84.97;100202.03;5053332;28;20462;-71
2022/09/18 10:13:14;;;;;;;3.30;0.87;;;;;;;13.37;85.17;100208.09;5054367;28;20418;-72
2022/09/18 10:15:44;;;;;;;3.67;0.93;;;;;;;13.43;84.75;100208.69;5072216;28;20495;-71
2022/09/18 10:18:16;;;;;;;3.70;0.90;;;;;;;13.40;85.57;100210.13;5069381;28;20843;-71
2022/09/18 10:20:44;;;;;;;4.40;1.07;;;;;;;13.47;82.78;100210.44;5071486;28;20505;-72
2022/09/18 10:23:15;;;;;;;7.03;0.70;;;;;;;13.68;83.31;100212.34;5072447;28;20503;-71
2022/09/18 10:25:48;;;;;;;3.90;0.70;;;;;;;13.85;78.71;100202.13;5073011;28;20902;-71
2022/09/18 10:28:16;;;;;;;7.03;0.60;;;;;;;13.87;78.73;100207.28;5072552;28;20444;-68
2022/09/18 10:30:54;;;;;;;8.53;0.80;;;;;;;14.00;76.26;100206.22;5072028;28;20522;-71
2022/09/18 10:33:33;;;;;;;5.53;0.80;;;;;;;14.05;71.67;100207.94;5072685;28;20955;-71
2022/09/18 10:36:07;;;;;;;3.37;0.70;;;;;;;14.07;71.83;100213.81;5077456;28;20777;-71
2022/09/18 10:38:36;;;;;;;4.40;0.77;;;;;;;13.99;71.49;100203.78;5077477;28;20462;-72
2022/09/18 10:41:32;;;;;;;3.00;0.60;;;;;;;13.98;71.89;100202.22;5076984;28;20473;-71
2022/09/18 10:44:05;;;;;;;4.07;0.70;;;;;;;14.14;72.65;100200.47;5059182;28;20506;-71
2022/09/18 10:46:34;;;;;;;4.80;0.90;;;;;;;14.49;72.29;100203.69;5076787;28;20548;-71
2022/09/18 10:49:17;;;;;;;2.90;0.53;;;;;;;14.77;72.20;100200.34;5076437;28;20441;-72
2022/09/18 10:51:43;;;;;;;5.10;0.77;;;;;;;15.02;70.75;100188.31;5076891;28;20494;-72
2022/09/18 10:54:16;;;;;;;8.37;0.97;;;;;;;15.08;68.56;100189.69;5076376;28;20442;-70
2022/09/18 10:56:43;;;;;;;5.17;1.00;;;;;;;15.07;66.20;100190.03;5076429;28;20911;-71
2022/09/18 10:59:32;;;;;;;8.30;1.63;;;;;;;15.09;64.55;100179.56;5076548;28;20451;-71
2022/09/18 11:02:01;;;;;;;5.13;0.90;;;;;;;15.08;63.67;100189.69;5076661;28;20445;-70
2022/09/18 11:04:30;;;;;;;4.70;1.03;;;;;;;15.03;65.25;100202.75;5076212;28;21017;-71
2022/09/18 11:07:01;;;;;;;2.97;0.60;;;;;;;14.79;65.68;100222.63;5076847;28;20580;-69
2022/09/18 11:09:35;;;;;;;3.47;0.80;;;;;;;14.14;64.16;100216.81;5076720;28;20515;-70
2022/09/18 11:12:02;;;;;;;3.40;0.70;;;;;;;13.51;71.50;100216.00;5076801;28;20438;-70
2022/09/18 11:14:32;;;;;;;5.23;0.80;;;;;;;13.02;78.24;100204.72;5076343;28;20567;-69
2022/09/18 11:17:00;;;;;;;5.73;0.50;;;;;;;12.63;83.13;100201.16;5076502;28;20437;-69
2022/09/18 11:19:31;;;;;;;2.90;0.50;;;;;;;12.38;86.77;100187.31;5075440;28;20477;-68
2022/09/18 11:22:02;;;;;;;3.77;0.80;;;;;;;12.67;86.94;100188.53;5075902;28;20422;-69
2022/09/18 11:24:31;;;;;;;3.13;0.80;;;;;;;13.21;84.81;100188.78;5075502;28;20452;-69
2022/09/18 11:26:59;;;;;;;4.10;0.83;;;;;;;13.86;83.76;100189.34;5075013;28;20481;-70
2022/09/18 11:29:31;;;;;;;4.20;0.90;;;;;;;15.35;78.67;100199.09;5075498;28;20461;-69